Terminal Aerodrome Forecast
Issued by NWS Denver/Boulder, CO

Home | Current Version | Previous Version | Text Only | Print | Product List | Glossary On
Versions: 1 2 3 4 5 6 7 8 9 10 11 12 13 14 15 16 17 18 19 20 21 22 23 24 25 26 27 28 29 30 31 32 33
000
FTUS45 KBOU 170313 AAA
TAFDEN
TAF AMD
KDEN 170313Z 1703/1806 08008KT P6SM VCSH BKN050 OVC080
     FM170700 12007KT P6SM FEW050 SCT080 BKN120
     FM171000 21010KT P6SM FEW090 SCT120 BKN220
     FM171600 VRB05KT P6SM FEW100 SCT220
     FM172100 05007KT P6SM FEW140 SCT220
     FM180300 20010KT P6SM FEW140 SCT220=

USA.gov is the U.S. government's official web portal to all federal, state and local government web resources and services.